Time;durP1;ratioP1;P1;durP2;ratioP2;P2;SDS_P1;SDS_P2;PMS_P1;PMS_P2;Temp;Humidity;BMP_temperature;BMP_pressure;BME280_temperature;BME280_humidity;BME280_pressure;Samples;Min_cycle;Max_cycle;Signal;HPM_P1;HPM_P2
2021/12/27 00:02:54;;;;;;;3.70;1.73;;;;;;;;;;21115705;28;20591;-79
2021/12/27 00:12:57;;;;;;;2.57;1.53;;;3.30;99.90;;;;;;21146937;28;20223;-78
2021/12/27 00:22:59;;;;;;;2.50;1.70;;;;;;;;;;21128616;28;20277;-80
2021/12/27 00:33:00;;;;;;;2.20;1.40;;;;;;;;;;21146048;28;20257;-79
2021/12/27 00:43:03;;;;;;;2.17;1.80;;;3.20;99.90;;;;;;21129295;28;20261;-79
2021/12/27 00:53:05;;;;;;;2.80;2.13;;;;;;;;;;21157018;28;20219;-78
2021/12/27 01:03:07;;;;;;;2.97;2.20;;;;;;;;;;21143349;28;20276;-80
2021/12/27 01:13:26;;;;;;;3.17;2.13;;;;;;;;;;21161182;28;20234;-78
2021/12/27 01:23:28;;;;;;;2.87;1.27;;;;;;;;;;21152899;28;20231;-79
2021/12/27 01:33:31;;;;;;;2.70;2.17;;;3.10;99.90;;;;;;21159898;28;20207;-79
2021/12/27 01:43:35;;;;;;;2.53;1.57;;;3.20;99.90;;;;;;21147090;28;20244;-80
2021/12/27 01:53:38;;;;;;;2.43;1.60;;;;;;;;;;21147807;28;20204;-77
2021/12/27 02:03:43;;;;;;;2.93;2.07;;;3.20;99.90;;;;;;21124496;28;20765;-80
2021/12/27 02:13:46;;;;;;;3.37;1.60;;;;;;;;;;21140065;28;20216;-79
2021/12/27 02:23:49;;;;;;;2.47;1.50;;;;;;;;;;21139210;28;20224;-78
2021/12/27 02:33:51;;;;;;;2.30;1.77;;;;;;;;;;21157516;28;20254;-80
2021/12/27 02:43:53;;;;;;;1.83;1.33;;;;;;;;;;21149655;28;20705;-80
2021/12/27 02:53:55;;;;;;;2.07;1.67;;;;;;;;;;21170131;28;20211;-78
2021/12/27 03:03:56;;;;;;;2.27;1.70;;;;;;;;;;21118880;28;20281;-78
2021/12/27 03:13:58;;;;;;;3.40;2.03;;;;;;;;;;21139483;28;20212;-78
2021/12/27 03:24:00;;;;;;;2.23;1.13;;;;;;;;;;21135764;28;20269;-79
2021/12/27 03:34:02;;;;;;;4.13;1.80;;;;;;;;;;21149775;28;20273;-79
2021/12/27 03:44:04;;;;;;;1.70;1.23;;;;;;;;;;21133160;28;20765;-79
2021/12/27 03:54:06;;;;;;;1.50;1.30;;;;;;;;;;21150657;28;20704;-79
2021/12/27 04:04:08;;;;;;;1.90;1.47;;;;;;;;;;21182615;28;20241;-80
2021/12/27 04:14:10;;;;;;;3.33;1.57;;;;;;;;;;21162845;28;20224;-79
2021/12/27 04:24:11;;;;;;;2.80;1.60;;;;;;;;;;21131122;28;20231;-80
2021/12/27 04:34:13;;;;;;;1.77;1.20;;;;;;;;;;21111776;28;20775;-79
2021/12/27 04:44:16;;;;;;;4.03;1.90;;;;;;;;;;21126760;28;20289;-79
2021/12/27 04:54:18;;;;;;;2.17;1.50;;;;;;;;;;21126745;28;20630;-78
2021/12/27 05:17:26;;;;;;;3.47;2.67;;;;;;;;;;21077574;27;20580;-67
2021/12/27 05:27:28;;;;;;;2.97;2.37;;;;;;;;;;21009221;28;20226;-67
2021/12/27 05:37:29;;;;;;;3.17;1.83;;;;;;;;;;21026079;28;20205;-67
2021/12/27 05:47:31;;;;;;;2.73;2.27;;;;;;;;;;21008701;28;20262;-67
2021/12/27 05:57:33;;;;;;;2.53;1.80;;;;;;;;;;21007768;28;20205;-67
2021/12/27 06:07:35;;;;;;;2.50;2.20;;;;;;;;;;21006583;28;20205;-68
2021/12/27 06:17:37;;;;;;;2.37;1.30;;;3.50;99.90;;;;;;21022658;28;20254;-67
2021/12/27 06:27:40;;;;;;;3.83;2.47;;;;;;;;;;20956107;28;20205;-67
2021/12/27 06:37:44;;;;;;;2.53;1.70;;;3.40;99.90;;;;;;20957899;28;20252;-67
2021/12/27 06:47:46;;;;;;;3.67;2.03;;;;;;;;;;20950522;28;20357;-67
2021/12/27 06:57:49;;;;;;;4.80;2.60;;;;;;;;;;20947581;28;20668;-67
2021/12/27 07:07:51;;;;;;;3.70;2.30;;;;;;;;;;20961888;28;20220;-67
2021/12/27 07:17:52;;;;;;;2.30;1.87;;;;;;;;;;20937632;28;20209;-67
2021/12/27 07:27:54;;;;;;;3.70;2.47;;;;;;;;;;20896258;28;20213;-67
2021/12/27 07:37:56;;;;;;;4.03;2.23;;;;;;;;;;20896632;28;20213;-67
2021/12/27 07:47:58;;;;;;;2.67;2.07;;;3.50;99.90;;;;;;20969099;28;20593;-67
2021/12/27 07:58:01;;;;;;;2.20;1.53;;;;;;;;;;20975568;28;20229;-67
2021/12/27 08:08:03;;;;;;;4.70;3.43;;;;;;;;;;20950515;28;20278;-67
2021/12/27 08:18:05;;;;;;;3.53;2.83;;;3.70;99.90;;;;;;20941076;28;20282;-67
2021/12/27 08:28:07;;;;;;;3.80;2.43;;;;;;;;;;20940388;28;20283;-67
2021/12/27 08:38:09;;;;;;;2.73;2.00;;;;;;;;;;20939990;28;20266;-67
2021/12/27 08:48:11;;;;;;;2.67;2.33;;;;;;;;;;20939920;28;20255;-67
2021/12/27 08:58:13;;;;;;;3.23;2.40;;;;;;;;;;20955843;28;20660;-68
2021/12/27 09:08:15;;;;;;;4.80;2.97;;;;;;;;;;20915706;28;20769;-68
2021/12/27 09:18:17;;;;;;;4.10;2.73;;;;;;;;;;20855251;28;20252;-68
2021/12/27 09:28:19;;;;;;;4.93;2.90;;;;;;;;;;20871785;28;20255;-68
2021/12/27 09:38:21;;;;;;;3.97;2.37;;;;;;;;;;20854814;28;20628;-69
2021/12/27 09:48:23;;;;;;;3.00;1.80;;;;;;;;;;20848950;22;20281;-80
2021/12/27 09:58:25;;;;;;;3.70;2.53;;;;;;;;;;20747478;28;20231;-77
2021/12/27 10:08:30;;;;;;;3.77;1.97;;;5.20;99.90;;;;;;20758785;28;20322;-77
2021/12/27 10:18:32;;;;;;;2.70;1.63;;;;;;;;;;20738728;28;20258;-78
2021/12/27 10:28:34;;;;;;;1.90;1.23;;;;;;;;;;20753965;28;20223;-77
2021/12/27 10:38:36;;;;;;;2.17;1.47;;;5.80;99.90;;;;;;20737080;28;20276;-78
2021/12/27 10:48:55;;;;;;;3.23;1.80;;;;;;;;;;20753175;28;20223;-77
2021/12/27 10:58:59;;;;;;;3.97;2.07;;;5.80;99.90;;;;;;20736176;28;20289;-79
2021/12/27 11:09:01;;;;;;;4.27;2.53;;;;;;;;;;20751789;28;20245;-78
2021/12/27 11:19:03;;;;;;;2.87;2.20;;;;;;;;;;20752074;28;20671;-77
2021/12/27 11:29:13;;;;;;;3.87;2.40;;;5.50;99.90;;;;;;20750237;28;20277;-77
2021/12/27 11:39:30;;;;;;;4.03;2.03;;;5.40;99.90;;;;;;20732745;28;20235;-78
2021/12/27 11:49:43;;;;;;;4.03;2.17;;;5.50;99.90;;;;;;20733084;28;20234;-78
2021/12/27 11:59:45;;;;;;;2.40;1.37;;;;;;;;;;20755454;28;20222;-80
2021/12/27 12:09:47;;;;;;;5.03;2.37;;;;;;;;;;20740141;28;20782;-77
2021/12/27 12:19:50;;;;;;;4.17;2.53;;;;;;;;;;20744027;28;20579;-77
2021/12/27 12:29:53;;;;;;;3.47;2.20;;;;;;;;;;20745399;28;20203;-78
2021/12/27 12:39:55;;;;;;;3.70;2.40;;;;;;;;;;20740333;28;20228;-77
2021/12/27 12:49:58;;;;;;;3.27;1.90;;;;;;;;;;20679319;28;20231;-77
2021/12/27 13:00:01;;;;;;;4.27;2.30;;;;;;;;;;20678204;28;20247;-77
2021/12/27 13:10:06;;;;;;;3.47;2.70;;;;;;;;;;20678425;28;20224;-77
2021/12/27 13:20:14;;;;;;;3.03;2.10;;;5.60;99.90;;;;;;20701500;28;20235;-77
2021/12/27 13:30:17;;;;;;;3.43;2.53;;;;;;;;;;20743642;28;20733;-76
2021/12/27 13:40:20;;;;;;;3.83;2.37;;;;;;;;;;20760062;28;20301;-77
2021/12/27 13:50:25;;;;;;;2.30;1.97;;;;;;;;;;20752246;28;20235;-79
2021/12/27 14:00:28;;;;;;;2.80;1.90;;;;;;;;;;20712879;28;20708;-78
2021/12/27 14:10:31;;;;;;;3.83;2.47;;;;;;;;;;20744732;28;20215;-79
2021/12/27 14:20:33;;;;;;;2.43;2.10;;;;;;;;;;20748556;28;20211;-81
2021/12/27 14:30:42;;;;;;;3.33;2.07;;;5.70;99.90;;;;;;20751269;28;20235;-79
2021/12/27 14:40:48;;;;;;;3.07;1.97;;;;;;;;;;20748025;28;20624;-82
2021/12/27 14:50:50;;;;;;;4.33;2.23;;;;;;;;;;20747856;28;20285;-79
2021/12/27 15:00:55;;;;;;;3.67;2.13;;;;;;;;;;20736820;28;20219;-78
2021/12/27 15:10:58;;;;;;;2.73;2.00;;;;;;;;;;20747549;28;20219;-77
2021/12/27 15:21:00;;;;;;;3.50;2.10;;;;;;;;;;20746557;28;20222;-80
2021/12/27 15:31:03;;;;;;;2.70;2.00;;;;;;;;;;20745640;28;20584;-80
2021/12/27 15:41:05;;;;;;;2.97;1.50;;;5.60;99.90;;;;;;20744711;28;20235;-79
2021/12/27 15:51:07;;;;;;;5.87;3.83;;;;;;;;;;20723438;28;20265;-80
2021/12/27 16:01:10;;;;;;;3.07;2.17;;;;;;;;;;20707482;28;20273;-81
2021/12/27 16:11:13;;;;;;;2.57;1.63;;;;;;;;;;20727297;28;20269;-79
2021/12/27 16:21:15;;;;;;;3.00;2.10;;;;;;;;;;20730375;28;20223;-80
2021/12/27 16:31:17;;;;;;;3.20;1.93;;;;;;;;;;20725098;28;20227;-80
2021/12/27 16:41:18;;;;;;;3.30;2.27;;;;;;;;;;20697583;28;20692;-79
2021/12/27 16:51:20;;;;;;;2.83;1.60;;;;;;;;;;20734373;28;20834;-78
2021/12/27 17:01:22;;;;;;;2.00;1.37;;;;;;;;;;20740900;28;20288;-80
2021/12/27 17:11:24;;;;;;;2.47;1.50;;;;;;;;;;20780328;28;20227;-81
2021/12/27 17:21:28;;;;;;;5.10;2.47;;;;;;;;;;20750534;28;20304;-81
2021/12/27 17:31:31;;;;;;;2.80;1.97;;;;;;;;;;20717186;28;20211;-79
2021/12/27 17:41:34;;;;;;;2.77;2.23;;;;;;;;;;20670035;28;20227;-78
2021/12/27 17:51:36;;;;;;;6.00;4.83;;;;;;;;;;20738170;28;20227;-78
2021/12/27 18:01:38;;;;;;;3.77;2.90;;;;;;;;;;20739758;28;20249;-79
2021/12/27 18:11:45;;;;;;;2.70;2.20;;;;;;;;;;20727335;28;20419;-78
2021/12/27 18:21:49;;;;;;;2.17;1.70;;;;;;;;;;20734636;28;20231;-79
2021/12/27 18:31:51;;;;;;;4.57;2.17;;;;;;;;;;20740290;28;20572;-79
2021/12/27 18:41:53;;;;;;;2.07;1.77;;;;;;;;;;20722141;28;20234;-78
2021/12/27 18:51:55;;;;;;;2.20;1.50;;;;;;;;;;20738524;28;20261;-79
2021/12/27 19:01:57;;;;;;;2.73;2.20;;;;;;;;;;20737341;28;20219;-80
2021/12/27 19:11:59;;;;;;;1.30;0.70;;;;;;;;;;20707619;28;20281;-77
2021/12/27 19:22:04;;;;;;;0.70;0.67;;;;;;;;;;20719091;28;20231;-79
2021/12/27 19:32:06;;;;;;;2.30;1.23;;;;;;;;;;20708410;28;20270;-78
2021/12/27 19:42:09;;;;;;;0.63;0.50;;;;;;;;;;20720622;28;20571;-82
2021/12/27 19:52:11;;;;;;;1.07;0.93;;;;;;;;;;20707084;28;20235;-79
2021/12/27 20:02:13;;;;;;;0.67;0.50;;;;;;;;;;20717469;28;20255;-81
2021/12/27 20:12:15;;;;;;;1.73;1.00;;;;;;;;;;20707968;28;20273;-78
2021/12/27 20:22:18;;;;;;;0.67;0.50;;;;;;;;;;20727251;28;20228;-83
2021/12/27 20:32:20;;;;;;;0.90;0.70;;;;;;;;;;20735673;28;20684;-77
2021/12/27 20:42:22;;;;;;;1.53;0.90;;;;;;;;;;20716709;28;20265;-79
2021/12/27 20:52:24;;;;;;;1.00;0.90;;;;;;;;;;20713127;28;20215;-77
2021/12/27 21:02:26;;;;;;;1.20;0.77;;;;;;;;;;20736665;28;20246;-79
2021/12/27 21:12:29;;;;;;;0.63;0.57;;;;;;;;;;20730953;28;20281;-80
2021/12/27 21:22:31;;;;;;;1.37;1.17;;;;;;;;;;20730524;28;20226;-78
2021/12/27 21:32:32;;;;;;;1.93;1.23;;;;;;;;;;20708990;28;20223;-79
2021/12/27 21:42:34;;;;;;;2.27;1.20;;;;;;;;;;20730280;28;20249;-83
2021/12/27 21:52:36;;;;;;;1.40;1.00;;;;;;;;;;20712507;28;20231;-79
2021/12/27 22:02:38;;;;;;;2.00;1.17;;;;;;;;;;20744251;28;20383;-81
2021/12/27 22:12:40;;;;;;;1.60;0.87;;;;;;;;;;20742953;28;20374;-78
2021/12/27 22:22:43;;;;;;;0.60;0.50;;;;;;;;;;20748227;28;20289;-78
2021/12/27 22:32:46;;;;;;;1.13;0.87;;;;;;;;;;20761773;28;20584;-80
2021/12/27 22:42:48;;;;;;;1.83;0.93;;;;;;;;;;20775643;28;20239;-77
2021/12/27 22:52:53;;;;;;;1.23;0.73;;;6.30;99.90;;;;;;20751913;28;20297;-79
2021/12/27 23:02:56;;;;;;;2.03;1.23;;;;;;;;;;20749895;28;20289;-79
2021/12/27 23:13:00;;;;;;;0.63;0.50;;;;;;;;;;20735137;28;20250;-79
2021/12/27 23:23:02;;;;;;;1.20;1.10;;;;;;;;;;20751685;28;20235;-80
2021/12/27 23:43:16;;;;;;;1.43;1.20;;;;;;;;;;20733494;28;20719;-82
2021/12/27 23:53:19;;;;;;;1.07;0.77;;;6.20;99.90;;;;;;20750627;28;20215;-79
